Flight Track Log - Related Links

Times and Time Zones

All times are in EDT time to prevent confusion due to time zone crossing. See the SWA481 flight status page for this flight to view local times or setup timezone preferences in your user account.

Time Position Orientation Groundspeed Altitude Reporting Facility
EDT Latitude Longitude Course Direction KTS MPH feet Rate Location/Type
Wed 07:07:17 PM 41.8000 -87.6333 90° East 241 277 4,700  Level Chicago TRACON
Wed 07:07:58 PM 41.8056 -87.5731 83° East 236 272 5,000 583 Climbing Chicago Center
Wed 07:09:00 PM 41.8067 -87.4658 89° East 277 319 5,700 2,081 Climbing Chicago Center
Wed 07:10:02 PM 41.8064 -87.3564 90° East 291 335 9,300 3,387 Climbing Chicago Center
Wed 07:11:04 PM 41.7953 -87.2397 97° East 315 362 12,700 3,000 Climbing Chicago Center
Wed 07:12:06 PM 41.7650 -87.0783 104° East 374 430 15,500 2,952 Climbing Chicago Center
Wed 07:13:08 PM 41.7619 -86.9272 92° East 405 466 18,800 2,952 Climbing Chicago Center
Wed 07:14:10 PM 41.7647 -86.7717 89° East 417 480 21,600 2,758 Climbing Chicago Center
Wed 07:15:12 PM 41.7658 -86.5919 89° East 437 503 24,500 2,468 Climbing Chicago Center
Wed 07:16:14 PM 41.7678 -86.4239 89° East 449 517 26,700 2,129 Climbing Chicago Center
Wed 07:17:16 PM 41.7636 -86.2497 92° East 467 537 28,900 2,177 Climbing Chicago Center
Wed 07:18:18 PM 41.7539 -86.0753 94° East 472 543 31,200 2,032 Climbing Chicago Center
Wed 07:19:20 PM 41.7428 -85.9031 95° East 467 537 33,100 1,742 Climbing Chicago Center
Wed 07:20:22 PM 41.7314 -85.7269 95° East 472 543 34,800 919 Climbing Chicago Center
Wed 07:21:24 PM 41.7211 -85.5489 94° East 475 547 35,000 97 Climbing Chicago Center
Wed 07:22:26 PM 41.7044 -85.3550 97° East 471 542 35,000  Level Chicago Center
Wed 07:23:28 PM 41.6967 -85.1819 93° East 492 566 35,000  Level Chicago Center
Wed 07:24:09 PM 41.6858 -85.0325 95° East 466 536 35,000  Level Cleveland Center
Wed 07:25:09 PM 41.6736 -84.8592 95° East 466 536 35,000  Level Cleveland Center
Wed 07:26:09 PM 41.6636 -84.6833 94° East 466 536 35,000  Level Cleveland Center
Wed 07:27:09 PM 41.6339 -84.5147 103° East 464 534 35,000  Level Cleveland Center
Wed 07:28:09 PM 41.6061 -84.3464 102° East 459 528 35,000  Level Cleveland Center
Wed 07:29:09 PM 41.5719 -84.1778 105° East 459 528 35,000  Level Cleveland Center
Wed 07:30:09 PM 41.5397 -84.0067 104° East 464 534 35,000  Level Cleveland Center
Wed 07:31:09 PM 41.5092 -83.8386 104° East 464 534 35,000  Level Cleveland Center
Wed 07:32:09 PM 41.4783 -83.6708 104° East 464 534 35,000  Level Cleveland Center
Wed 07:33:09 PM 41.4453 -83.5031 105° East 464 534 35,000  Level Cleveland Center
Wed 07:34:09 PM 41.4142 -83.3297 103° East 469 540 35,000 -500 Level Cleveland Center
Wed 07:35:09 PM 41.3825 -83.1625 104° East 469 540 34,000 -950 Descending Cleveland Center
Wed 07:36:09 PM 41.3508 -82.9953 104° East 469 540 33,100 -950 Descending Cleveland Center
Wed 07:37:09 PM 41.3189 -82.8253 104° East 464 534 32,100 -950 Descending Cleveland Center
Wed 07:38:09 PM 41.2847 -82.6500 104° East 475 547 31,200 -950 Descending Cleveland Center
Wed 07:39:09 PM 41.2500 -82.4778 105° East 481 554 30,200 -950 Descending Cleveland Center
Wed 07:40:09 PM 41.2175 -82.3056 104° East 481 554 29,300 -950 Descending Cleveland Center
Wed 07:41:09 PM 41.1822 -82.1336 105° East 481 554 28,300 -950 Descending Cleveland Center
Wed 07:42:09 PM 41.1550 -81.9786 103° East 481 554 27,400 -950 Descending Cleveland Center
Wed 07:43:09 PM 41.1236 -81.8153 104° East 468 539 26,400 -1,450 Descending Cleveland Center
Wed 07:44:09 PM 41.0900 -81.6492 105° East 463 533 24,500 -1,700 Descending Cleveland Center
Wed 07:45:09 PM 41.0558 -81.4944 106° East 451 519 23,000 -750 Descending Cleveland Center
Wed 07:46:09 PM 41.0256 -81.3400 105° East 444 511 23,000 -1,050 Level Cleveland Center
Wed 07:47:09 PM 40.9911 -81.1856 106° East 437 503 20,900 -2,650 Descending Cleveland Center
Wed 07:48:09 PM 40.9586 -81.0258 105° East 437 503 17,700 -3,200 Descending Cleveland Center
Wed 07:49:09 PM 40.8922 -80.8936 124° Southeast 426 490 14,500 -2,300 Descending Cleveland Center
Wed 07:50:09 PM 40.8300 -80.7642 122° Southeast 426 490 13,100 -1,450 Descending Cleveland Center
Wed 07:51:09 PM 40.7758 -80.6433 121° Southeast 404 465 11,600 -1,300 Descending Cleveland Center
Wed 07:52:09 PM 40.7281 -80.5311 119° Southeast 375 432 10,500 -1,250 Descending Cleveland Center
Wed 07:53:09 PM 40.6819 -80.4269 120° Southeast 346 398 9,100 -1,350 Descending Cleveland Center
Wed 07:54:09 PM 40.6400 -80.3231 118° Southeast 334 384 7,800 -1,300 Descending Cleveland Center
Wed 07:55:09 PM 40.5981 -80.2111 116° Southeast 317 365 6,500 -650 Descending Cleveland Center
Wed 07:56:09 PM 40.5811 -80.1156 103° East 289 333 6,500 -700 Level Cleveland Center
Wed 07:57:09 PM 40.5475 -80.0775 139° Southeast 195 224 5,100 -1,400 Descending Cleveland Center
Wed 07:59:00 PM 40.4833 -80.2167 143° Southeast  Level FlightAware Approximate
Wed 08:06:00 PM 40.4915 -80.2329 143° Southeast  Level Estimated

Login

Don't have an account? Register now (free) for customized features, flight alerts, and more!